Terminal Aerodrome Forecast
Issued by NWS Denver/Boulder, CO

Home | Current Version | Previous Version | Text Only | Print | Product List | Glossary On
Versions: 1 2 3 4 5 6 7 8 9 10 11 12 13 14 15 16 17 18 19 20 21 22 23 24 25 26 27 28 29 30 31 32 33 34 35 36 37 38 39 40 41 42 43 44 45 46 47 48 49 50
000
FTUS45 KBOU 292332
TAFDEN
TAF
KDEN 292332Z 3000/3106 03007KT 5SM -SHRA BKN040 OVC060
      TEMPO 3000/3004 3SM +TSRA OVC025CB
     FM300400 06007KT 5SM -SHRA BKN030 OVC050
      TEMPO 3004/3007 3SM -TSRA OVC020CB
     FM300700 06007KT P6SM VCTS SCT025CB OVC040
      TEMPO 3007/3011 5SM SHRA OVC025
     FM301100 03007KT P6SM SCT020 OVC040
      TEMPO 3011/3015 -SHRA BKN020
     FM302000 06012KT P6SM SCT025 OVC040
      TEMPO 3020/3024 -TSRA BKN025CB
     FM310000 35008KT P6SM SCT040 BKN080 PROB30 3100/3106 -SHRA
      BKN040=

USA.gov is the U.S. government's official web portal to all federal, state and local government web resources and services.